createdAt,value
2022-09-23T00:01:05.459Z,102057.53
2022-09-23T00:03:33.156Z,102054.31
2022-09-23T00:06:01.831Z,102060.19
2022-09-23T00:08:29.491Z,102054.59
2022-09-23T00:10:56.592Z,102052.97
2022-09-23T00:13:24.599Z,102058.28
2022-09-23T00:15:51.856Z,102049.75
2022-09-23T00:18:21.105Z,102052.97
2022-09-23T00:20:48.146Z,102043.09
2022-09-23T00:23:14.785Z,102040.97
2022-09-23T00:25:41.273Z,102041.53
2022-09-23T00:28:07.811Z,102030.88
2022-09-23T00:30:34.573Z,102034.31
2022-09-23T00:33:02.172Z,102033.28
2022-09-23T00:35:28.782Z,102028.75
2022-09-23T00:37:56.194Z,102024.47
2022-09-23T00:40:22.663Z,102030.88
2022-09-23T00:42:51.215Z,102026.59
2022-09-23T00:45:18.719Z,102030.28
2022-09-23T00:47:53.361Z,102020.97
2022-09-23T00:50:36.431Z,102014.31
2022-09-23T00:53:10.645Z,102022.81
2022-09-23T00:55:43.896Z,102017.75
2022-09-23T00:58:14.879Z,102015.91
2022-09-23T01:00:42.864Z,102011.38
2022-09-23T01:03:10.215Z,102013.47
2022-09-23T01:05:36.842Z,102000.97
2022-09-23T01:08:05.055Z,102003.91
2022-09-23T01:11:09.455Z,102003.91
2022-09-23T01:13:52.910Z,102013.75
2022-09-23T01:16:34.069Z,102010.53
2022-09-23T01:19:19.536Z,102008.41
2022-09-23T01:22:23.735Z,102009.19
2022-09-23T01:25:21.241Z,102003.28
2022-09-23T01:28:12.672Z,102006.72
2022-09-23T01:31:05.124Z,102006.16
2022-09-23T01:33:53.170Z,102005.59
2022-09-23T01:36:37.149Z,102000.81
2022-09-23T01:39:30.734Z,101999.44
2022-09-23T01:42:00.143Z,101989.88
2022-09-23T01:44:48.727Z,101985.59
2022-09-23T01:47:23.184Z,101982.16
2022-09-23T01:50:30.011Z,101980.56
2022-09-23T01:53:02.425Z,101989.03
2022-09-23T01:55:34.136Z,101985.84
2022-09-23T01:58:15.781Z,101984.50
2022-09-23T02:00:56.837Z,101987.97
2022-09-23T02:03:35.407Z,101979.19
2022-09-23T02:06:07.924Z,101977.31
2022-09-23T02:08:56.632Z,101978.41
2022-09-23T02:11:23.579Z,101979.97
2022-09-23T02:14:07.093Z,101981.53
2022-09-23T02:16:47.570Z,101974.06
2022-09-23T02:19:40.375Z,101984.97
2022-09-23T02:22:23.192Z,101972.47
2022-09-23T02:24:49.734Z,101966.09
2022-09-23T02:27:30.345Z,101958.94
2022-09-23T02:30:18.988Z,101952.53
2022-09-23T02:33:07.866Z,101950.13
2022-09-23T02:35:37.294Z,101952.78
2022-09-23T02:38:38.974Z,101945.88
2022-09-23T02:41:11.629Z,101939.22
2022-09-23T02:43:59.667Z,101935.19
2022-09-23T02:46:29.992Z,101938.13
2022-09-23T02:49:14.068Z,101935.97
2022-09-23T02:51:41.451Z,101931.72
2022-09-23T02:54:14.578Z,101928.00
2022-09-23T02:56:41.928Z,101921.88
2022-09-23T02:59:09.616Z,101926.66
2022-09-23T03:01:56.681Z,101926.13
2022-09-23T03:04:35.233Z,101922.13
2022-09-23T03:07:07.562Z,101925.00
2022-09-23T03:09:48.361Z,101928.16
2022-09-23T03:12:37.748Z,101919.38
2022-09-23T03:15:26.489Z,101918.53
2022-09-23T03:18:08.221Z,101917.44
2022-09-23T03:20:49.503Z,101915.03
2022-09-23T03:23:19.912Z,101906.53
2022-09-23T03:25:49.740Z,101906.53
2022-09-23T03:28:20.267Z,101911.03
2022-09-23T03:30:47.864Z,101912.91
2022-09-23T03:33:16.756Z,101904.94
2022-09-23T03:36:10.856Z,101909.44
2022-09-23T03:38:43.516Z,101907.84
2022-09-23T03:41:16.925Z,101905.19
2022-09-23T03:43:45.589Z,101905.19
2022-09-23T03:46:12.965Z,101901.72
2022-09-23T03:48:40.730Z,101898.53
2022-09-23T03:51:21.982Z,101896.91
2022-09-23T03:53:48.429Z,101888.94
2022-09-23T03:56:15.231Z,101888.94
2022-09-23T03:58:41.760Z,101891.88
2022-09-23T04:01:08.489Z,101889.75
2022-09-23T04:03:35.059Z,101891.34
2022-09-23T04:06:01.557Z,101889.47
2022-09-23T04:08:27.999Z,101882.34
2022-09-23T04:10:59.576Z,101885.00
2022-09-23T04:13:26.139Z,101875.41
2022-09-23T04:15:52.776Z,101884.44
2022-09-23T04:18:19.443Z,101879.13
2022-09-23T04:20:46.323Z,101878.59
2022-09-23T04:23:13.010Z,101878.59
2022-09-23T04:25:47.794Z,101881.25
2022-09-23T04:28:15.406Z,101885.72
2022-09-23T04:30:43.745Z,101880.16
2022-09-23T04:33:13.867Z,101877.50
2022-09-23T04:35:42.894Z,101874.84
2022-09-23T04:38:12.807Z,101874.84
2022-09-23T04:40:40.263Z,101873.28
2022-09-23T04:43:10.556Z,101867.69
2022-09-23T04:45:39.518Z,101866.88
2022-09-23T04:48:05.977Z,101862.13
2022-09-23T04:50:33.924Z,101869.28
2022-09-23T04:53:00.512Z,101873.53
2022-09-23T04:55:27.291Z,101872.75
2022-09-23T04:57:53.916Z,101868.22
2022-09-23T05:00:20.820Z,101872.50
2022-09-23T05:02:49.319Z,101874.09
2022-09-23T05:05:20.221Z,101869.59
2022-09-23T05:07:51.165Z,101869.31
2022-09-23T05:10:17.849Z,101866.41
2022-09-23T05:12:44.477Z,101861.88
2022-09-23T05:17:37.628Z,101871.47
2022-09-23T05:20:04.965Z,101864.28
2022-09-23T05:22:31.482Z,101868.03
2022-09-23T05:24:59.861Z,101860.03
2022-09-23T05:27:26.474Z,101866.94
2022-09-23T05:29:53.096Z,101867.75
2022-09-23T05:32:20.087Z,101861.63
2022-09-23T05:34:46.827Z,101865.09
2022-09-23T05:37:13.561Z,101870.16
2022-09-23T05:39:40.047Z,101870.69
2022-09-23T05:42:06.896Z,101871.47
2022-09-23T05:44:33.380Z,101870.69
2022-09-23T05:47:00.030Z,101875.22
2022-09-23T05:49:48.197Z,101878.66
2022-09-23T05:52:13.244Z,101878.66
2022-09-23T05:54:40.423Z,101872.03
2022-09-23T05:57:06.974Z,101866.47
2022-09-23T05:59:33.693Z,101868.06
2022-09-23T06:02:00.756Z,101873.38
2022-09-23T06:04:27.630Z,101873.91
2022-09-23T06:06:54.087Z,101872.06
2022-09-23T06:09:20.567Z,101874.44
2022-09-23T06:11:47.381Z,101874.19
2022-09-23T06:14:14.790Z,101868.88
2022-09-23T06:16:41.412Z,101868.63
2022-09-23T06:19:08.069Z,101870.75
2022-09-23T06:21:37.237Z,101870.53
2022-09-23T06:24:04.932Z,101867.63
2022-09-23T06:26:34.673Z,101867.09
2022-09-23T06:29:02.803Z,101862.31
2022-09-23T06:31:30.194Z,101865.53
2022-09-23T06:34:07.907Z,101863.41
2022-09-23T06:36:43.473Z,101858.91
2022-09-23T06:39:11.551Z,101861.81
2022-09-23T06:41:38.387Z,101864.22
2022-09-23T06:44:05.155Z,101870.09
2022-09-23T06:46:31.880Z,101862.66
2022-09-23T06:48:58.565Z,101865.06
2022-09-23T06:51:25.458Z,101858.41
2022-09-23T06:53:52.550Z,101861.63
2022-09-23T06:56:21.030Z,101856.59
2022-09-23T06:58:47.752Z,101867.22
2022-09-23T07:01:16.274Z,101866.44
2022-09-23T07:03:44.385Z,101870.16
2022-09-23T07:06:11.473Z,101865.13
2022-09-23T07:08:38.084Z,101870.19
2022-09-23T07:11:06.672Z,101864.91
2022-09-23T07:13:33.753Z,101863.03
2022-09-23T07:16:02.201Z,101860.66
2022-09-23T07:18:36.215Z,101867.31
2022-09-23T07:21:09.023Z,101866.28
2022-09-23T07:23:37.749Z,101860.16
2022-09-23T07:26:05.141Z,101859.09
2022-09-23T07:28:32.202Z,101857.25
2022-09-23T07:31:07.954Z,101858.84
2022-09-23T07:33:37.034Z,101856.97
2022-09-23T07:36:08.228Z,101861.22
2022-09-23T07:38:35.289Z,101863.59
2022-09-23T07:41:10.990Z,101861.75
2022-09-23T07:43:40.823Z,101871.34
2022-09-23T07:46:11.418Z,101867.84
2022-09-23T07:48:41.585Z,101867.88
2022-09-23T07:51:12.141Z,101868.66
2022-09-23T07:53:39.260Z,101870.22
2022-09-23T07:56:06.656Z,101870.00
2022-09-23T07:58:35.032Z,101872.38
2022-09-23T08:01:06.751Z,101870.22
2022-09-23T08:03:33.409Z,101865.41
2022-09-23T08:06:12.017Z,101872.03
2022-09-23T08:08:40.735Z,101868.03
2022-09-23T08:11:10.008Z,101857.88
2022-09-23T08:13:37.340Z,101869.03
2022-09-23T08:16:04.693Z,101869.25
2022-09-23T08:18:31.261Z,101874.03
2022-09-23T08:21:03.769Z,101863.56
2022-09-23T08:23:33.581Z,101865.13
2022-09-23T08:26:02.856Z,101868.84
2022-09-23T08:28:30.009Z,101861.03
2022-09-23T08:30:56.562Z,101865.78
2022-09-23T08:33:24.294Z,101865.47
2022-09-23T08:35:51.542Z,101869.44
2022-09-23T08:38:19.306Z,101862.69
2022-09-23T08:40:49.470Z,101862.94
2022-09-23T08:43:33.984Z,101860.72
2022-09-23T08:46:04.611Z,101863.06
2022-09-23T08:48:36.988Z,101866.22
2022-09-23T08:51:12.709Z,101861.06
2022-09-23T08:53:39.936Z,101861.25
2022-09-23T08:56:15.406Z,101865.19
2022-09-23T08:59:00.157Z,101862.69
2022-09-23T09:01:45.930Z,101860.97
2022-09-23T09:04:24.188Z,101859.84
2022-09-23T09:07:12.312Z,101855.25
2022-09-23T09:09:57.282Z,101858.38
2022-09-23T09:12:36.076Z,101857.72
2022-09-23T09:15:07.412Z,101859.56
2022-09-23T09:17:51.737Z,101849.59
2022-09-23T09:20:35.170Z,101852.22
2022-09-23T09:23:20.125Z,101851.06
2022-09-23T09:25:50.955Z,101853.16
2022-09-23T09:28:42.415Z,101846.94
2022-09-23T09:31:12.203Z,101842.94
2022-09-23T09:33:47.291Z,101845.81
2022-09-23T09:36:40.452Z,101844.97
2022-09-23T09:39:12.331Z,101839.81
2022-09-23T09:41:41.867Z,101836.28
2022-09-23T09:44:23.473Z,101836.19
2022-09-23T09:47:07.804Z,101833.75
2022-09-23T09:50:00.749Z,101832.09
2022-09-23T09:52:29.748Z,101833.88
2022-09-23T09:55:17.708Z,101836.19
2022-09-23T09:57:49.279Z,101833.72
2022-09-23T10:00:21.845Z,101827.72
2022-09-23T10:03:01.540Z,101831.31
2022-09-23T10:05:46.833Z,101826.66
2022-09-23T10:08:22.304Z,101835.41
2022-09-23T10:10:55.550Z,101824.59
2022-09-23T10:13:24.503Z,101822.34
2022-09-23T10:15:54.813Z,101818.19
2022-09-23T10:18:31.832Z,101822.56
2022-09-23T10:21:14.983Z,101818.91
2022-09-23T10:23:44.040Z,101809.47
2022-09-23T10:26:12.324Z,101811.00
2022-09-23T10:28:52.259Z,101805.53
2022-09-23T10:31:30.801Z,101803.56
2022-09-23T10:34:02.605Z,101798.56
2022-09-23T10:36:31.505Z,101804.63
2022-09-23T10:39:21.102Z,101802.53
2022-09-23T10:42:22.349Z,101806.69
2022-09-23T10:45:19.727Z,101808.19
2022-09-23T10:48:08.852Z,101806.97
2022-09-23T10:50:48.619Z,101805.56
2022-09-23T10:53:19.487Z,101796.75
2022-09-23T10:56:10.957Z,101808.66
2022-09-23T10:59:03.123Z,101810.22
2022-09-23T11:01:39.585Z,101812.81
2022-09-23T11:04:35.827Z,101801.16
2022-09-23T11:07:18.300Z,101804.66
2022-09-23T11:09:47.621Z,101806.75
2022-09-23T11:12:28.117Z,101802.03
2022-09-23T11:15:03.724Z,101800.31
2022-09-23T11:17:45.074Z,101803.19
2022-09-23T11:20:36.050Z,101797.72
2022-09-23T11:23:30.046Z,101801.69
2022-09-23T11:26:12.759Z,101796.81
2022-09-23T11:29:04.321Z,101798.59
2022-09-23T11:31:32.564Z,101800.19
2022-09-23T11:34:20.560Z,101798.31
2022-09-23T11:36:54.391Z,101799.28
2022-09-23T11:39:26.662Z,101785.53
2022-09-23T11:41:56.876Z,101789.19
2022-09-23T11:44:37.544Z,101791.28
2022-09-23T11:47:09.149Z,101784.69
2022-09-23T11:49:41.180Z,101785.66
2022-09-23T11:52:21.129Z,101777.47
2022-09-23T11:55:22.055Z,101770.06
2022-09-23T11:57:53.111Z,101772.63
2022-09-23T12:00:34.211Z,101775.47
2022-09-23T12:03:19.314Z,101777.88
2022-09-23T12:05:59.843Z,101765.59
2022-09-23T12:08:31.014Z,101761.47
2022-09-23T12:11:06.706Z,101769.88
2022-09-23T12:14:07.553Z,101757.41
2022-09-23T12:16:42.763Z,101759.16
2022-09-23T12:19:47.423Z,101757.75
2022-09-23T12:22:40.844Z,101753.34
2022-09-23T12:25:37.226Z,101754.63
2022-09-23T12:28:12.329Z,101747.03
2022-09-23T12:30:41.126Z,101742.13
2022-09-23T12:33:24.588Z,101740.41
2022-09-23T12:35:54.021Z,101731.06
2022-09-23T12:38:35.227Z,101732.94
2022-09-23T12:41:09.112Z,101731.56
2022-09-23T12:43:35.962Z,101736.94
2022-09-23T12:46:29.731Z,101727.44
2022-09-23T12:48:57.978Z,101739.50
2022-09-23T12:51:26.535Z,101739.66
2022-09-23T12:54:05.285Z,101732.88
2022-09-23T12:56:34.547Z,101733.16
2022-09-23T12:59:17.294Z,101724.50
2022-09-23T13:01:44.681Z,101727.19
2022-09-23T13:04:52.051Z,101723.84
2022-09-23T13:07:25.813Z,101727.50
2022-09-23T13:09:58.282Z,101731.31
2022-09-23T13:12:31.156Z,101722.09
2022-09-23T13:15:03.476Z,101720.72
2022-09-23T13:17:37.061Z,101717.19
2022-09-23T13:20:22.295Z,101725.44
2022-09-23T13:22:48.768Z,101720.53
2022-09-23T13:25:27.007Z,101713.25
2022-09-23T13:28:00.703Z,101706.91
2022-09-23T13:30:27.866Z,101708.81
2022-09-23T13:33:10.929Z,101707.72
2022-09-23T13:35:41.868Z,101704.69
2022-09-23T13:38:18.649Z,101702.00
2022-09-23T13:40:45.393Z,101703.91
2022-09-23T13:43:23.641Z,101700.13
2022-09-23T13:45:50.447Z,101698.53
2022-09-23T13:48:18.502Z,101699.31
2022-09-23T13:50:50.878Z,101702.00
2022-09-23T13:53:25.402Z,101692.06
2022-09-23T13:56:12.067Z,101688.25
2022-09-23T13:58:39.301Z,101695.38
2022-09-23T14:01:34.822Z,101695.69
2022-09-23T14:04:05.923Z,101696.47
2022-09-23T14:06:41.217Z,101695.84
2022-09-23T14:09:09.408Z,101693.78
2022-09-23T14:11:36.017Z,101687.28
2022-09-23T14:14:07.667Z,101679.34
2022-09-23T14:16:41.265Z,101681.13
2022-09-23T14:19:17.051Z,101677.75
2022-09-23T14:21:43.778Z,101670.63
2022-09-23T14:24:10.286Z,101668.72
2022-09-23T14:26:38.482Z,101670.31
2022-09-23T14:29:06.712Z,101667.31
2022-09-23T14:31:33.590Z,101669.19
2022-09-23T14:34:00.415Z,101661.13
2022-09-23T14:36:45.929Z,101663.34
2022-09-23T14:39:12.703Z,101654.16
2022-09-23T14:41:46.685Z,101664.47
2022-09-23T14:44:22.943Z,101664.78
2022-09-23T14:46:57.905Z,101650.53
2022-09-23T14:49:25.258Z,101658.13
2022-09-23T14:51:59.766Z,101654.19
2022-09-23T14:54:37.481Z,101652.91
2022-09-23T14:57:24.055Z,101653.25
2022-09-23T15:00:01.017Z,101648.94
2022-09-23T15:02:38.068Z,101648.47
2022-09-23T15:05:15.626Z,101644.53
2022-09-23T15:07:44.347Z,101644.72
2022-09-23T15:10:19.978Z,101646.94
2022-09-23T15:12:51.831Z,101652.63
2022-09-23T15:15:24.034Z,101642.81
2022-09-23T15:17:50.802Z,101642.97
2022-09-23T15:20:25.665Z,101640.91
2022-09-23T15:22:55.174Z,101633.78
2022-09-23T15:25:39.619Z,101634.44
2022-09-23T15:28:12.308Z,101638.84
2022-09-23T15:30:39.409Z,101630.63
2022-09-23T15:33:06.879Z,101623.19
2022-09-23T15:35:33.549Z,101629.19
2022-09-23T15:38:02.305Z,101630.63
2022-09-23T15:40:34.310Z,101637.75
2022-09-23T15:43:07.524Z,101632.66
2022-09-23T15:45:40.857Z,101635.19
2022-09-23T15:48:13.726Z,101628.53
2022-09-23T15:50:41.389Z,101630.72
2022-09-23T15:53:10.229Z,101631.84
2022-09-23T15:55:36.792Z,101626.31
2022-09-23T15:58:03.768Z,101625.84
2022-09-23T16:00:30.786Z,101627.25
2022-09-23T16:02:57.289Z,101626.78
2022-09-23T16:05:36.252Z,101629.78
2022-09-23T16:08:09.027Z,101628.81
2022-09-23T16:10:37.266Z,101630.25
2022-09-23T16:13:07.117Z,101623.59
2022-09-23T16:15:33.879Z,101626.91
2022-09-23T16:18:00.910Z,101632.94
2022-09-23T16:20:29.747Z,101634.66
2022-09-23T16:23:02.214Z,101626.41
2022-09-23T16:25:31.162Z,101626.56
2022-09-23T16:27:58.602Z,101634.47
2022-09-23T16:30:30.911Z,101630.81
2022-09-23T16:33:02.351Z,101630.66
2022-09-23T16:35:33.702Z,101628.13
2022-09-23T16:38:00.483Z,101627.16
2022-09-23T16:40:27.339Z,101633.47
2022-09-23T16:42:56.254Z,101632.97
2022-09-23T16:45:23.293Z,101628.06
2022-09-23T16:47:52.116Z,101642.09
2022-09-23T16:50:22.772Z,101639.22
2022-09-23T16:52:52.146Z,101637.19
2022-09-23T16:55:18.834Z,101635.44
2022-09-23T16:57:45.413Z,101635.25
2022-09-23T17:00:34.088Z,101638.03
2022-09-23T17:03:20.251Z,101643.53
2022-09-23T17:05:47.308Z,101641.78
2022-09-23T17:08:15.348Z,101638.91
2022-09-23T17:10:44.087Z,101637.16
2022-09-23T17:13:12.259Z,101639.66
2022-09-23T17:15:40.267Z,101642.47
2022-09-23T17:18:07.930Z,101636.13
2022-09-23T17:20:35.311Z,101634.06
2022-09-23T17:23:05.246Z,101636.88
2022-09-23T17:25:34.352Z,101631.31
2022-09-23T17:28:01.372Z,101625.75
2022-09-23T17:30:29.017Z,101630.97
2022-09-23T17:32:55.493Z,101634.25
2022-09-23T17:35:21.995Z,101631.38
2022-09-23T17:37:48.704Z,101632.78
2022-09-23T17:40:15.363Z,101633.06
2022-09-23T17:42:42.211Z,101629.41
2022-09-23T17:45:12.401Z,101624.66
2022-09-23T17:47:41.882Z,101620.72
2022-09-23T17:50:08.915Z,101614.06
2022-09-23T17:52:35.484Z,101611.97
2022-09-23T17:55:02.328Z,101611.97
2022-09-23T17:57:28.912Z,101617.34
2022-09-23T17:59:56.059Z,101609.91
2022-09-23T18:02:22.791Z,101609.44
2022-09-23T18:04:49.874Z,101611.91
2022-09-23T18:07:16.657Z,101607.75
2022-09-23T18:09:43.532Z,101611.84
2022-09-23T18:12:10.205Z,101614.03
2022-09-23T18:14:36.653Z,101608.97
2022-09-23T18:17:03.141Z,101613.06
2022-09-23T18:19:29.623Z,101612.25
2022-09-23T18:21:57.167Z,101614.94
2022-09-23T18:24:33.358Z,101607.50
2022-09-23T18:27:00.862Z,101611.88
2022-09-23T18:29:27.491Z,101620.19
2022-09-23T18:31:54.115Z,101622.38
2022-09-23T18:34:21.059Z,101622.69
2022-09-23T18:36:47.548Z,101619.19
2022-09-23T18:39:14.106Z,101619.81
2022-09-23T18:41:41.209Z,101619.31
2022-09-23T18:44:08.394Z,101623.41
2022-09-23T18:46:35.550Z,101622.91
2022-09-23T18:49:20.623Z,101624.00
2022-09-23T18:51:54.268Z,101621.91
2022-09-23T18:54:21.981Z,101619.53
2022-09-23T18:56:49.417Z,101624.13
2022-09-23T18:59:19.564Z,101628.66
2022-09-23T19:01:48.291Z,101628.66
2022-09-23T19:04:17.520Z,101623.78
2022-09-23T19:06:44.265Z,101625.19
2022-09-23T19:09:12.062Z,101622.00
2022-09-23T19:11:39.140Z,101621.53
2022-09-23T19:14:09.165Z,101622.13
2022-09-23T19:16:37.845Z,101621.63
2022-09-23T19:19:05.758Z,101624.63
2022-09-23T19:21:33.541Z,101619.53
2022-09-23T19:24:03.573Z,101619.53
2022-09-23T19:26:33.964Z,101618.25
2022-09-23T19:29:02.339Z,101622.34
2022-09-23T19:31:36.126Z,101623.75
2022-09-23T19:34:10.177Z,101620.25
2022-09-23T19:36:38.813Z,101622.91
2022-09-23T19:39:08.607Z,101619.47
2022-09-23T19:41:36.407Z,101621.34
2022-09-23T19:44:03.801Z,101615.19
2022-09-23T19:46:33.898Z,101614.09
2022-09-23T19:49:00.699Z,101614.09
2022-09-23T19:51:28.223Z,101609.84
2022-09-23T19:53:54.836Z,101611.41
2022-09-23T19:56:21.517Z,101614.38
2022-09-23T19:58:52.241Z,101608.25
2022-09-23T20:01:19.256Z,101610.44
2022-09-23T20:03:47.182Z,101607.75
2022-09-23T20:06:14.849Z,101614.22
2022-09-23T20:08:41.633Z,101608.34
2022-09-23T20:11:15.377Z,101603.28
2022-09-23T20:13:44.249Z,101601.41
2022-09-23T20:16:13.644Z,101601.41
2022-09-23T20:18:41.429Z,101600.91
2022-09-23T20:21:10.892Z,101598.22
2022-09-23T20:23:37.702Z,101600.13
2022-09-23T20:26:24.736Z,101600.91
2022-09-23T20:28:52.006Z,101595.53
2022-09-23T20:31:21.052Z,101597.16
2022-09-23T20:33:57.948Z,101596.66
2022-09-23T20:36:29.772Z,101587.00
2022-09-23T20:39:00.238Z,101587.31
2022-09-23T20:41:27.975Z,101591.09
2022-09-23T20:43:55.941Z,101585.22
2022-09-23T20:46:25.942Z,101581.44
2022-09-23T20:48:54.091Z,101584.13
2022-09-23T20:51:20.820Z,101580.66
2022-09-23T20:53:52.775Z,101576.41
2022-09-23T20:56:22.080Z,101575.59
2022-09-23T20:58:50.571Z,101579.66
2022-09-23T21:01:19.588Z,101571.97
2022-09-23T21:03:48.803Z,101574.94
2022-09-23T21:06:18.682Z,101575.22
2022-09-23T21:08:45.927Z,101577.88
2022-09-23T21:11:15.194Z,101567.47
2022-09-23T21:13:47.543Z,101564.78
2022-09-23T21:16:16.134Z,101560.81
2022-09-23T21:18:43.528Z,101560.03
2022-09-23T21:21:12.309Z,101556.09
2022-09-23T21:23:40.438Z,101558.75
2022-09-23T21:26:09.580Z,101566.59
2022-09-23T21:28:38.567Z,101561.81
2022-09-23T21:31:08.693Z,101561.31
2022-09-23T21:33:38.318Z,101556.78
2022-09-23T21:36:09.309Z,101561.03
2022-09-23T21:38:36.616Z,101556.78
2022-09-23T21:41:05.617Z,101552.50
2022-09-23T21:43:34.231Z,101552.50
2022-09-23T21:46:03.262Z,101564.31
2022-09-23T21:48:35.612Z,101549.31
2022-09-23T21:51:08.274Z,101554.97
2022-09-23T21:53:39.180Z,101559.03
2022-09-23T21:56:15.698Z,101562.81
2022-09-23T21:58:44.851Z,101563.91
2022-09-23T22:01:17.719Z,101573.81
2022-09-23T22:03:48.833Z,101568.47
2022-09-23T22:06:21.718Z,101567.06
2022-09-23T22:08:50.588Z,101565.50
2022-09-23T22:11:38.203Z,101556.97
2022-09-23T22:14:07.480Z,101560.72
2022-09-23T22:16:34.129Z,101558.38
2022-09-23T22:19:01.781Z,101557.88
2022-09-23T22:21:30.304Z,101557.03
2022-09-23T22:24:03.574Z,101554.88
2022-09-23T22:26:36.083Z,101551.69
2022-09-23T22:29:22.095Z,101554.69
2022-09-23T22:32:06.968Z,101549.63
2022-09-23T22:34:50.623Z,101543.78
2022-09-23T22:37:21.825Z,101548.63
2022-09-23T22:39:48.720Z,101544.34
2022-09-23T22:42:15.472Z,101539.00
2022-09-23T22:44:42.386Z,101543.06
2022-09-23T22:47:10.456Z,101544.66
2022-09-23T22:49:37.434Z,101543.06
2022-09-23T22:52:07.955Z,101540.09
2022-09-23T22:54:35.550Z,101539.59
2022-09-23T22:57:05.364Z,101535.31
2022-09-23T22:59:32.168Z,101539.59
2022-09-23T23:02:02.985Z,101536.13
2022-09-23T23:04:30.173Z,101545.25
2022-09-23T23:06:58.820Z,101537.22
2022-09-23T23:09:25.753Z,101532.97
2022-09-23T23:11:52.255Z,101533.75
2022-09-23T23:14:19.150Z,101532.97
2022-09-23T23:16:46.570Z,101529.47
2022-09-23T23:19:19.185Z,101529.78
2022-09-23T23:21:46.029Z,101523.63
2022-09-23T23:24:18.446Z,101528.19
2022-09-23T23:26:45.887Z,101528.19
2022-09-23T23:29:14.534Z,101523.09
2022-09-23T23:31:41.199Z,101528.75
2022-09-23T23:34:11.895Z,101527.75
2022-09-23T23:36:39.449Z,101525.09
2022-09-23T23:39:06.339Z,101511.72
2022-09-23T23:41:33.274Z,101520.53
2022-09-23T23:44:01.371Z,101517.06
2022-09-23T23:46:30.072Z,101517.06
2022-09-23T23:48:57.668Z,101513.56
2022-09-23T23:51:26.479Z,101521.59
2022-09-23T23:53:54.143Z,101518.91
2022-09-23T23:56:22.712Z,101513.88
2022-09-23T23:58:54.897Z,101520.31
